PWSweather.com
Personal Weather Stations
Station Observations
WIKENOS15
47th Ave & 30th St, Kenosha, WI 53144

47th Ave & 30th StKenosha, WI 53144

Lat: 42.612, Lon: -87.866

Elevation: 697

Station Type: Oregon Scientific 100N

Latest ConditionsUpdated 8:45:00 PM CST Tuesday, Mar 3, 2015
Currently Today's Max Today's Min Today's Average
Temperature 29.4°F-1.4°C 32.6°F0.3°C 24.5°F-4.2°C 28.8°F-1.8°C
Dew Point 25.1°F-3.8°C 30.8°F-0.7°C 17.9°F-7.8°C 25.6°F-3.6°C
Winds 1.0 mph WSW1.6 kmh WSW 6.5 mph SE10.5 kmh SE - 3.4 mph 5.5 kmh
Wind Gusts 1.5 mph2.4 kmh 12.0 mph19.3 kmh - -
Humidity 84% 96% 71% 88%
Pressure 29.81 in1009.5 mb 30.24 in1024.0 mb 29.60 in1002.4 mb -
Precipitation - 0.01 in0.3 mm - -
Hour Temp Dew Point Humidity Winds Wind Gusts Pressure Precip Precip Rate Daily Precip Total
08:45 PM 29.4°F-1.4°C 25.1°F-3.8°C 84% 1.0 mph WSW1.6 kmh WSW 1.5 mph2.4 kmh 29.81 in1009.5 mb 0.00 in0.0 mm 0.00 in/hr0.0 mm/hr 0.01 in0.3 mm
08:30 PM 29.9°F-1.2°C 25.4°F-3.7°C 83% 2.8 mph WNW4.5 kmh WNW 5.2 mph8.4 kmh 29.80 in1009.1 mb 0.00 in0.0 mm 0.00 in/hr0.0 mm/hr 0.01 in0.3 mm
08:15 PM 30.1°F-1.1°C 25.5°F-3.6°C 83% 2.8 mph NW4.5 kmh NW 5.2 mph8.4 kmh 29.79 in1008.8 mb 0.00 in0.0 mm 0.00 in/hr0.0 mm/hr 0.01 in0.3 mm
08:00 PM 30.2°F-1.0°C 25.7°F-3.5°C 83% 4.3 mph WNW6.9 kmh WNW 6.0 mph9.7 kmh 29.80 in1009.1 mb 0.00 in0.0 mm 0.00 in/hr0.0 mm/hr 0.01 in0.3 mm
07:45 PM 30.0°F-1.1°C 26.0°F-3.3°C 85% 2.9 mph WNW4.7 kmh WNW 5.2 mph8.4 kmh 29.79 in1008.8 mb 0.00 in0.0 mm 0.00 in/hr0.0 mm/hr 0.01 in0.3 mm
07:30 PM 30.2°F-1.0°C 25.9°F-3.4°C 84% 2.5 mph WNW4.0 kmh WNW 3.0 mph4.8 kmh 29.78 in1008.5 mb 0.00 in0.0 mm 0.00 in/hr0.0 mm/hr 0.01 in0.3 mm
07:15 PM 29.9°F-1.2°C 25.9°F-3.4°C 85% 2.8 mph W4.5 kmh W 4.5 mph7.2 kmh 29.78 in1008.5 mb 0.00 in0.0 mm 0.00 in/hr0.0 mm/hr 0.01 in0.3 mm
07:00 PM 29.8°F-1.2°C 25.8°F-3.4°C 85% 2.0 mph W3.2 kmh W 2.3 mph3.7 kmh 29.75 in1007.5 mb 0.00 in0.0 mm 0.00 in/hr0.0 mm/hr 0.01 in0.3 mm
06:45 PM 29.9°F-1.2°C 25.9°F-3.4°C 85% 2.0 mph WNW3.2 kmh WNW 3.0 mph4.8 kmh 29.74 in1007.1 mb 0.00 in0.0 mm 0.00 in/hr0.0 mm/hr 0.01 in0.3 mm
06:30 PM 30.3°F-0.9°C 26.3°F-3.2°C 85% 2.1 mph WNW3.4 kmh WNW 3.7 mph6.0 kmh 29.73 in1006.8 mb 0.00 in0.0 mm 0.00 in/hr0.0 mm/hr 0.01 in0.3 mm
06:15 PM 30.9°F-0.6°C 26.6°F-3.0°C 84% 3.5 mph WNW5.6 kmh WNW 5.2 mph8.4 kmh 29.73 in1006.8 mb 0.00 in0.0 mm 0.00 in/hr0.0 mm/hr 0.01 in0.3 mm
06:00 PM 31.5°F-0.3°C 27.5°F-2.5°C 85% 3.6 mph WNW5.8 kmh WNW 5.2 mph8.4 kmh 29.72 in1006.4 mb 0.01 in0.3 mm 0.01 in/hr0.3 mm/hr 0.01 in0.3 mm
05:45 PM 31.9°F-0.1°C 28.5°F-1.9°C 87% 3.8 mph WNW6.1 kmh WNW 6.0 mph9.7 kmh 29.71 in1006.1 mb 0.01 in0.3 mm 0.04 in/hr1.0 mm/hr 0.01 in0.3 mm
05:30 PM 31.7°F-0.2°C 28.6°F-1.9°C 88% 1.9 mph WNW3.1 kmh WNW 3.0 mph4.8 kmh 29.69 in1005.4 mb 0.00 in0.0 mm 0.00 in/hr0.0 mm/hr 0.00 in0.0 mm
05:15 PM 31.9°F-0.1°C 28.8°F-1.8°C 88% 2.4 mph W3.9 kmh W 3.0 mph4.8 kmh 29.67 in1004.7 mb 0.00 in0.0 mm 0.00 in/hr0.0 mm/hr 0.00 in0.0 mm
05:00 PM 32.2°F0.1°C 28.7°F-1.8°C 87% 5.0 mph WNW8.0 kmh WNW 6.8 mph10.9 kmh 29.67 in1004.7 mb 0.00 in0.0 mm 0.00 in/hr0.0 mm/hr 0.00 in0.0 mm
04:45 PM 32.3°F0.2°C 29.1°F-1.6°C 88% 4.5 mph W7.2 kmh W 6.8 mph10.9 kmh 29.67 in1004.7 mb 0.00 in0.0 mm 0.00 in/hr0.0 mm/hr 0.00 in0.0 mm
04:30 PM 32.3°F0.2°C 29.4°F-1.4°C 89% 4.8 mph WNW7.7 kmh WNW 6.8 mph10.9 kmh 29.66 in1004.4 mb 0.00 in0.0 mm 0.00 in/hr0.0 mm/hr 0.00 in0.0 mm
04:15 PM 32.2°F0.1°C 29.3°F-1.5°C 89% 4.8 mph WNW7.7 kmh WNW 7.5 mph12.1 kmh 29.65 in1004.1 mb 0.00 in0.0 mm 0.00 in/hr0.0 mm/hr 0.00 in0.0 mm
04:00 PM 32.2°F0.1°C 29.6°F-1.3°C 90% 3.9 mph WNW6.3 kmh WNW 6.0 mph9.7 kmh 29.65 in1004.1 mb 0.00 in0.0 mm 0.00 in/hr0.0 mm/hr 0.00 in0.0 mm
03:45 PM 32.3°F0.2°C 29.7°F-1.3°C 90% 2.2 mph W3.5 kmh W 3.0 mph4.8 kmh 29.64 in1003.7 mb 0.00 in0.0 mm 0.00 in/hr0.0 mm/hr 0.00 in0.0 mm
03:30 PM 32.4°F0.2°C 29.8°F-1.2°C 90% 3.5 mph WSW5.6 kmh WSW 7.5 mph12.1 kmh 29.63 in1003.4 mb 0.00 in0.0 mm 0.00 in/hr0.0 mm/hr 0.00 in0.0 mm
03:15 PM 32.4°F0.2°C 29.5°F-1.4°C 89% 3.7 mph WNW6.0 kmh WNW 4.5 mph7.2 kmh 29.64 in1003.7 mb 0.00 in0.0 mm 0.00 in/hr0.0 mm/hr 0.00 in0.0 mm
03:00 PM 32.5°F0.3°C 29.9°F-1.2°C 90% 4.0 mph W6.4 kmh W 7.5 mph12.1 kmh 29.63 in1003.4 mb 0.00 in0.0 mm 0.00 in/hr0.0 mm/hr 0.00 in0.0 mm
02:45 PM 32.6°F0.3°C 30.0°F-1.1°C 90% 3.5 mph WNW5.6 kmh WNW 4.5 mph7.2 kmh 29.62 in1003.0 mb 0.00 in0.0 mm 0.00 in/hr0.0 mm/hr 0.00 in0.0 mm
02:30 PM 32.5°F0.3°C 30.5°F-0.8°C 92% 3.7 mph W6.0 kmh W 6.0 mph9.7 kmh 29.61 in1002.7 mb 0.00 in0.0 mm 0.00 in/hr0.0 mm/hr 0.00 in0.0 mm
02:15 PM 32.4°F0.2°C 30.6°F-0.8°C 93% 3.9 mph W6.3 kmh W 6.0 mph9.7 kmh 29.61 in1002.7 mb 0.00 in0.0 mm 0.00 in/hr0.0 mm/hr 0.00 in0.0 mm
02:00 PM 32.3°F0.2°C 30.8°F-0.7°C 94% 2.9 mph WSW4.7 kmh WSW 6.0 mph9.7 kmh 29.60 in1002.4 mb 0.00 in0.0 mm 0.00 in/hr0.0 mm/hr 0.00 in0.0 mm
01:45 PM 32.3°F0.2°C 30.8°F-0.7°C 94% 4.6 mph WSW7.4 kmh WSW 9.0 mph14.5 kmh 29.61 in1002.7 mb 0.00 in0.0 mm 0.00 in/hr0.0 mm/hr 0.00 in0.0 mm
01:30 PM 32.2°F0.1°C 30.7°F-0.7°C 94% 3.7 mph W6.0 kmh W 5.2 mph8.4 kmh 29.60 in1002.4 mb 0.00 in0.0 mm 0.00 in/hr0.0 mm/hr 0.00 in0.0 mm
01:15 PM 32.0°F0.0°C 30.7°F-0.7°C 95% 3.4 mph WSW5.5 kmh WSW 5.2 mph8.4 kmh 29.61 in1002.7 mb 0.00 in0.0 mm 0.00 in/hr0.0 mm/hr 0.00 in0.0 mm
01:00 PM 31.7°F-0.2°C 30.4°F-0.9°C 95% 3.3 mph WSW5.3 kmh WSW 6.0 mph9.7 kmh 29.62 in1003.0 mb 0.00 in0.0 mm 0.00 in/hr0.0 mm/hr 0.00 in0.0 mm
12:45 PM 31.6°F-0.2°C 30.3°F-0.9°C 95% 4.1 mph WSW6.6 kmh WSW 8.2 mph13.2 kmh 29.62 in1003.0 mb 0.00 in0.0 mm 0.00 in/hr0.0 mm/hr 0.00 in0.0 mm
12:30 PM 31.6°F-0.2°C 30.3°F-0.9°C 95% 2.6 mph SW4.2 kmh SW 3.7 mph6.0 kmh 29.62 in1003.0 mb 0.00 in0.0 mm 0.00 in/hr0.0 mm/hr 0.00 in0.0 mm
12:15 PM 31.5°F-0.3°C 30.5°F-0.8°C 96% 3.5 mph SW5.6 kmh SW 7.5 mph12.1 kmh 29.63 in1003.4 mb 0.00 in0.0 mm 0.00 in/hr0.0 mm/hr 0.00 in0.0 mm
12:00 PM 31.3°F-0.4°C 30.3°F-0.9°C 96% 4.0 mph SW6.4 kmh SW 5.2 mph8.4 kmh 29.63 in1003.4 mb 0.00 in0.0 mm 0.00 in/hr0.0 mm/hr 0.00 in0.0 mm
11:45 AM 31.0°F-0.6°C 30.0°F-1.1°C 96% 3.3 mph SW5.3 kmh SW 6.0 mph9.7 kmh 29.65 in1004.1 mb 0.00 in0.0 mm 0.00 in/hr0.0 mm/hr 0.00 in0.0 mm
11:30 AM 30.5°F-0.8°C 29.5°F-1.4°C 96% 2.5 mph SSW4.0 kmh SSW 4.5 mph7.2 kmh 29.65 in1004.1 mb 0.00 in0.0 mm 0.00 in/hr0.0 mm/hr 0.00 in0.0 mm
11:15 AM 30.2°F-1.0°C 29.2°F-1.6°C 96% 2.5 mph SW4.0 kmh SW 4.5 mph7.2 kmh 29.67 in1004.7 mb 0.00 in0.0 mm 0.00 in/hr0.0 mm/hr 0.00 in0.0 mm
11:00 AM 29.8°F-1.2°C 28.8°F-1.8°C 96% 2.9 mph SSW4.7 kmh SSW 4.5 mph7.2 kmh 29.66 in1004.4 mb 0.00 in0.0 mm 0.00 in/hr0.0 mm/hr 0.00 in0.0 mm
10:45 AM 29.3°F-1.5°C 28.3°F-2.1°C 96% 2.4 mph S3.9 kmh S 4.5 mph7.2 kmh 29.67 in1004.7 mb 0.00 in0.0 mm 0.00 in/hr0.0 mm/hr 0.00 in0.0 mm
10:30 AM 29.0°F-1.7°C 28.0°F-2.2°C 96% 4.0 mph S6.4 kmh S 6.8 mph10.9 kmh 29.69 in1005.4 mb 0.00 in0.0 mm 0.00 in/hr0.0 mm/hr 0.00 in0.0 mm
10:15 AM 28.9°F-1.7°C 27.9°F-2.3°C 96% 3.5 mph SSE5.6 kmh SSE 5.2 mph8.4 kmh 29.69 in1005.4 mb 0.00 in0.0 mm 0.00 in/hr0.0 mm/hr 0.00 in0.0 mm
10:00 AM 28.6°F-1.9°C 27.6°F-2.4°C 96% 3.8 mph S6.1 kmh S 6.8 mph10.9 kmh 29.71 in1006.1 mb 0.00 in0.0 mm 0.00 in/hr0.0 mm/hr 0.00 in0.0 mm
09:45 AM 28.5°F-1.9°C 27.5°F-2.5°C 96% 3.4 mph SSE5.5 kmh SSE 6.0 mph9.7 kmh 29.71 in1006.1 mb 0.00 in0.0 mm 0.00 in/hr0.0 mm/hr 0.00 in0.0 mm
09:30 AM 28.2°F-2.1°C 27.2°F-2.7°C 96% 3.6 mph SSE5.8 kmh SSE 6.8 mph10.9 kmh 29.76 in1007.8 mb 0.00 in0.0 mm 0.00 in/hr0.0 mm/hr 0.00 in0.0 mm
09:15 AM 28.1°F-2.2°C 27.1°F-2.7°C 96% 5.4 mph S8.7 kmh S 9.0 mph14.5 kmh 29.77 in1008.1 mb 0.00 in0.0 mm 0.00 in/hr0.0 mm/hr 0.00 in0.0 mm
09:00 AM 28.0°F-2.2°C 27.0°F-2.8°C 96% 3.8 mph S6.1 kmh S 8.2 mph13.2 kmh 29.77 in1008.1 mb 0.00 in0.0 mm 0.00 in/hr0.0 mm/hr 0.00 in0.0 mm
08:45 AM 27.8°F-2.3°C 26.8°F-2.9°C 96% 6.0 mph SSE9.7 kmh SSE 9.0 mph14.5 kmh 29.76 in1007.8 mb 0.00 in0.0 mm 0.00 in/hr0.0 mm/hr 0.00 in0.0 mm
08:30 AM 26.9°F-2.8°C 25.9°F-3.4°C 96% 5.4 mph SE8.7 kmh SE 12.0 mph19.3 kmh 29.78 in1008.5 mb 0.00 in0.0 mm 0.00 in/hr0.0 mm/hr 0.00 in0.0 mm
08:15 AM 26.3°F-3.2°C 25.1°F-3.8°C 95% 6.5 mph SE10.5 kmh SE 9.8 mph15.8 kmh 29.80 in1009.1 mb 0.00 in0.0 mm 0.00 in/hr0.0 mm/hr 0.00 in0.0 mm
08:00 AM 26.0°F-3.3°C 24.8°F-4.0°C 95% 4.5 mph SE7.2 kmh SE 7.5 mph12.1 kmh 29.83 in1010.2 mb 0.00 in0.0 mm 0.00 in/hr0.0 mm/hr 0.00 in0.0 mm
07:45 AM 25.9°F-3.4°C 24.6°F-4.1°C 95% 4.1 mph SE6.6 kmh SE 6.8 mph10.9 kmh 29.85 in1010.8 mb 0.00 in0.0 mm 0.00 in/hr0.0 mm/hr 0.00 in0.0 mm
07:30 AM 25.7°F-3.5°C 24.5°F-4.2°C 95% 5.7 mph SE9.2 kmh SE 9.0 mph14.5 kmh 29.87 in1011.5 mb 0.00 in0.0 mm 0.00 in/hr0.0 mm/hr 0.00 in0.0 mm
07:15 AM 25.6°F-3.6°C 24.4°F-4.2°C 95% 5.2 mph SE8.4 kmh SE 7.5 mph12.1 kmh 29.89 in1012.2 mb 0.00 in0.0 mm 0.00 in/hr0.0 mm/hr 0.00 in0.0 mm
07:00 AM 25.7°F-3.5°C 24.5°F-4.2°C 95% 5.9 mph SE9.5 kmh SE 8.2 mph13.2 kmh 29.90 in1012.5 mb 0.00 in0.0 mm 0.00 in/hr0.0 mm/hr 0.00 in0.0 mm
06:45 AM 25.5°F-3.6°C 24.3°F-4.3°C 95% 3.3 mph SE5.3 kmh SE 5.2 mph8.4 kmh 29.91 in1012.9 mb 0.00 in0.0 mm 0.00 in/hr0.0 mm/hr 0.00 in0.0 mm
06:30 AM 25.1°F-3.8°C 23.9°F-4.5°C 95% 2.9 mph SE4.7 kmh SE 4.5 mph7.2 kmh 29.94 in1013.9 mb 0.00 in0.0 mm 0.00 in/hr0.0 mm/hr 0.00 in0.0 mm
06:15 AM 24.8°F-4.0°C 23.3°F-4.8°C 94% 3.9 mph SSE6.3 kmh SSE 5.2 mph8.4 kmh 29.95 in1014.2 mb 0.00 in0.0 mm 0.00 in/hr0.0 mm/hr 0.00 in0.0 mm
06:00 AM 24.5°F-4.2°C 23.0°F-5.0°C 94% 4.4 mph SE7.1 kmh SE 7.5 mph12.1 kmh 29.97 in1014.9 mb 0.00 in0.0 mm 0.00 in/hr0.0 mm/hr 0.00 in0.0 mm
05:45 AM 24.6°F-4.1°C 22.9°F-5.1°C 93% 3.5 mph S5.6 kmh S 5.2 mph8.4 kmh 30.00 in1015.9 mb 0.00 in0.0 mm 0.00 in/hr0.0 mm/hr 0.00 in0.0 mm
05:30 AM 24.9°F-3.9°C 22.9°F-5.1°C 92% 2.9 mph SE4.7 kmh SE 4.5 mph7.2 kmh 30.00 in1015.9 mb 0.00 in0.0 mm 0.00 in/hr0.0 mm/hr 0.00 in0.0 mm
05:15 AM 25.9°F-3.4°C 23.1°F-4.9°C 89% 4.6 mph S7.4 kmh S 6.8 mph10.9 kmh 30.01 in1016.3 mb 0.00 in0.0 mm 0.00 in/hr0.0 mm/hr 0.00 in0.0 mm
05:00 AM 26.7°F-2.9°C 22.2°F-5.4°C 83% 3.7 mph SE6.0 kmh SE 7.5 mph12.1 kmh 30.04 in1017.3 mb 0.00 in0.0 mm 0.00 in/hr0.0 mm/hr 0.00 in0.0 mm
04:45 AM 26.7°F-2.9°C 21.7°F-5.7°C 81% 4.5 mph S7.2 kmh S 6.0 mph9.7 kmh 30.06 in1017.9 mb 0.00 in0.0 mm 0.00 in/hr0.0 mm/hr 0.00 in0.0 mm
04:30 AM 26.8°F-2.9°C 21.8°F-5.7°C 81% 3.8 mph ESE6.1 kmh ESE 5.2 mph8.4 kmh 30.06 in1017.9 mb 0.00 in0.0 mm 0.00 in/hr0.0 mm/hr 0.00 in0.0 mm
04:15 AM 26.8°F-2.9°C 21.7°F-5.7°C 81% 5.4 mph SSE8.7 kmh SSE 7.5 mph12.1 kmh 30.07 in1018.3 mb 0.00 in0.0 mm 0.00 in/hr0.0 mm/hr 0.00 in0.0 mm
04:00 AM 26.9°F-2.8°C 22.1°F-5.5°C 82% 2.9 mph SE4.7 kmh SE 5.2 mph8.4 kmh 30.06 in1017.9 mb 0.00 in0.0 mm 0.00 in/hr0.0 mm/hr 0.00 in0.0 mm
03:45 AM 26.9°F-2.8°C 22.1°F-5.5°C 82% 4.3 mph SSE6.9 kmh SSE 4.5 mph7.2 kmh 30.07 in1018.3 mb 0.00 in0.0 mm 0.00 in/hr0.0 mm/hr 0.00 in0.0 mm
03:30 AM 26.9°F-2.8°C 22.2°F-5.4°C 82% 2.4 mph SSE3.9 kmh SSE 6.0 mph9.7 kmh 30.09 in1019.0 mb 0.00 in0.0 mm 0.00 in/hr0.0 mm/hr 0.00 in0.0 mm
03:15 AM 27.0°F-2.8°C 21.4°F-5.9°C 79% 3.8 mph SE6.1 kmh SE 6.8 mph10.9 kmh 30.10 in1019.3 mb 0.00 in0.0 mm 0.00 in/hr0.0 mm/hr 0.00 in0.0 mm
03:00 AM 26.9°F-2.8°C 20.3°F-6.5°C 76% 2.6 mph SE4.2 kmh SE 4.5 mph7.2 kmh 30.11 in1019.6 mb 0.00 in0.0 mm 0.00 in/hr0.0 mm/hr 0.00 in0.0 mm
02:45 AM 26.7°F-2.9°C 20.1°F-6.6°C 76% 2.2 mph SE3.5 kmh SE 4.5 mph7.2 kmh 30.12 in1020.0 mb 0.00 in0.0 mm 0.00 in/hr0.0 mm/hr 0.00 in0.0 mm
02:30 AM 26.3°F-3.2°C 18.8°F-7.3°C 73% 2.1 mph SE3.4 kmh SE 3.0 mph4.8 kmh 30.12 in1020.0 mb 0.00 in0.0 mm 0.00 in/hr0.0 mm/hr 0.00 in0.0 mm
02:15 AM 26.1°F-3.3°C 18.6°F-7.4°C 73% 2.3 mph SSE3.7 kmh SSE 4.5 mph7.2 kmh 30.14 in1020.7 mb 0.00 in0.0 mm 0.00 in/hr0.0 mm/hr 0.00 in0.0 mm
02:00 AM 26.1°F-3.3°C 18.3°F-7.6°C 72% 1.5 mph SE2.4 kmh SE 2.3 mph3.7 kmh 30.17 in1021.7 mb 0.00 in0.0 mm 0.00 in/hr0.0 mm/hr 0.00 in0.0 mm
01:45 AM 26.1°F-3.3°C 18.0°F-7.8°C 71% 2.2 mph S3.5 kmh S 3.0 mph4.8 kmh 30.19 in1022.4 mb 0.00 in0.0 mm 0.00 in/hr0.0 mm/hr 0.00 in0.0 mm
01:30 AM 26.1°F-3.3°C 18.3°F-7.6°C 72% 3.2 mph SSE5.1 kmh SSE 3.7 mph6.0 kmh 30.20 in1022.7 mb 0.00 in0.0 mm 0.00 in/hr0.0 mm/hr 0.00 in0.0 mm
01:15 AM 26.0°F-3.3°C 17.9°F-7.8°C 71% 2.4 mph S3.9 kmh S 3.0 mph4.8 kmh 30.21 in1023.0 mb 0.00 in0.0 mm 0.00 in/hr0.0 mm/hr 0.00 in0.0 mm
01:00 AM 25.9°F-3.4°C 18.5°F-7.5°C 73% 1.6 mph SE2.6 kmh SE 3.0 mph4.8 kmh 30.22 in1023.4 mb 0.00 in0.0 mm 0.00 in/hr0.0 mm/hr 0.00 in0.0 mm
12:45 AM 25.7°F-3.5°C 18.6°F-7.4°C 74% 1.8 mph S2.9 kmh S 2.3 mph3.7 kmh 30.22 in1023.4 mb 0.00 in0.0 mm 0.00 in/hr0.0 mm/hr 0.00 in0.0 mm
12:30 AM 25.7°F-3.5°C 18.9°F-7.3°C 75% 1.1 mph SSE1.8 kmh SSE 3.0 mph4.8 kmh 30.23 in1023.7 mb 0.00 in0.0 mm 0.00 in/hr0.0 mm/hr 0.00 in0.0 mm
12:15 AM 25.7°F-3.5°C 18.9°F-7.3°C 75% 1.2 mph S1.9 kmh S 2.3 mph3.7 kmh 30.23 in1023.7 mb 0.00 in0.0 mm 0.00 in/hr0.0 mm/hr 0.00 in0.0 mm
12:00 AM 25.6°F-3.6°C 19.4°F-7.0°C 77% Calm Calm -- 30.24 in1024.0 mb 0.00 in0.0 mm 0.00 in/hr0.0 mm/hr 0.00 in0.0 mm